メインページ
METAR-TAF:

METAR-TAF

空港 :

フンシャル, マデイラ諸島, ポルトガル

マデイラ空港

緯度: 32-41-52N, 経度: 016-46-28W, 海抜: 59m

現時点の気象観測

当レポートは12分前の09:30(UTC)に作成
変向風 6kt
気温 16°C
湿度 51%
気圧 1019 hPa
視程10km以上
高度1600ftの雲は散在している
高度3300ftの雲は散在している

METAR: LPMA 250930Z VRB06KT 9999 SCT016 SCT033 16/06 Q1019

時間: 09:42 (09:42 UTC)

予報

当レポートは4時間42分前の05:00(UTC)に作成
予報は25日の 06時(UTC)から 26日の 06時(UTC)まで有効
の風 8kt
視程10km以上
高度1500ftの雲は散在している
25日の 06時(UTC)から 25日の 09時(UTC)まで徐々に
変向風 5kt
25日の 10時(UTC)から 25日の 12時(UTC)まで徐々に
南/南西の風 8kt
25日の 22時(UTC)から 25日の 24時(UTC)まで徐々に
南西の風 15kt
高度1500ftの雲は散在している
高度3000ftの千切れ雲あり
26日の 00時(UTC)から 26日の 06時(UTC)まで一時的に
南西の風 20kt、最大30ktの突風を伴う
視程: 6000m
高度1500ftの千切れ雲あり
小雨

TAF: LPMA 250500Z 2506/2606 35008KT 9999 SCT015 BECMG 2506/2509 VRB05KT BECMG 2510/2512 21008KT BECMG 2522/2524 23015KT SCT015 BKN030 TEMPO 2600/2606 23020G30KT 6000 -RA BKN015

4,000以上の空港の気象観測と天気予報(METAR報とTAF報)

利用可能な観測所は地図上に黄色い丸と赤い丸で示す。

丸の上にカーソルを重ねると観測所名を参照できる。

次にクリックすると気象観測と天気予報を参照できる。

マップの切り替え:黒色「×」印の緑ボタンをクリックして拡大、「-」印の緑ボタンをクリックして縮小、緑色の三角印をクリックして隣りの地図に切り替え


METAR-TAF: